createdAt,value
2018-07-22T19:10:48.574Z,4.20
2018-07-22T19:13:18.184Z,4.50
2018-07-22T19:15:47.791Z,4.67
2018-07-22T19:18:17.385Z,4.87
2018-07-22T19:20:46.995Z,4.60
2018-07-22T19:23:16.671Z,4.20
2018-07-22T19:25:46.335Z,4.83
2018-07-22T19:28:15.916Z,4.40
2018-07-22T19:30:45.609Z,4.50
2018-07-22T19:33:15.349Z,4.30
2018-07-22T19:35:45.349Z,5.23
2018-07-22T19:38:14.915Z,4.53
2018-07-22T19:40:44.497Z,4.60
2018-07-22T19:43:14.089Z,4.37
2018-07-22T19:45:43.706Z,5.30
2018-07-22T19:48:13.415Z,4.87
2018-07-22T19:50:42.984Z,4.90
2018-07-22T19:53:12.592Z,5.00
2018-07-22T19:55:42.162Z,5.03
2018-07-22T19:58:11.796Z,5.20
2018-07-22T20:00:41.515Z,4.43
2018-07-22T20:03:10.896Z,5.30
2018-07-22T20:05:40.457Z,5.07
2018-07-22T20:08:10.062Z,5.00
2018-07-22T20:10:39.877Z,5.10
2018-07-22T20:13:09.485Z,4.90
2018-07-22T20:15:39.167Z,5.00
2018-07-22T20:18:08.767Z,5.80
2018-07-22T20:20:38.392Z,5.47
2018-07-22T20:23:08.014Z,5.70
2018-07-22T20:25:37.467Z,6.10
2018-07-22T20:28:06.947Z,6.00
2018-07-22T20:30:36.523Z,6.27
2018-07-22T20:33:06.200Z,5.80
2018-07-22T20:35:35.548Z,5.97
2018-07-22T20:38:04.879Z,5.67
2018-07-22T20:40:34.179Z,6.20
2018-07-22T20:43:03.450Z,6.33
2018-07-22T20:45:32.722Z,5.90
2018-07-22T20:48:02.107Z,5.57
2018-07-22T20:50:34.545Z,7.37
2018-07-22T20:53:03.891Z,7.03
2018-07-22T20:55:33.173Z,7.03
2018-07-22T20:58:02.477Z,8.07
2018-07-22T21:00:31.803Z,7.40
2018-07-22T21:03:01.101Z,8.53
2018-07-22T21:05:30.390Z,7.27
2018-07-22T21:07:59.727Z,8.80
2018-07-22T21:23:28.490Z,8.63
2018-07-22T21:25:57.800Z,8.20
2018-07-22T21:28:27.078Z,9.23
2018-07-22T21:30:56.322Z,8.53
2018-07-22T21:33:25.570Z,8.47
2018-07-22T21:35:54.838Z,8.90
2018-07-22T21:38:24.121Z,8.47
2018-07-22T21:40:53.361Z,8.83
2018-07-22T21:43:22.663Z,9.57
2018-07-22T21:45:51.952Z,9.43
2018-07-22T21:48:21.280Z,9.37
2018-07-22T21:50:50.576Z,9.70
2018-07-22T21:53:19.900Z,9.67
2018-07-22T21:55:49.214Z,10.00
2018-07-22T21:58:18.489Z,11.40
2018-07-22T22:00:47.767Z,11.43
2018-07-22T22:03:17.036Z,11.73
2018-07-22T22:05:46.310Z,11.33
2018-07-22T22:08:15.578Z,12.60
2018-07-22T22:10:44.605Z,11.90
2018-07-22T22:13:13.952Z,12.43
2018-07-22T22:15:43.237Z,12.50
2018-07-22T22:18:12.562Z,12.27
2018-07-22T22:20:41.891Z,13.20
2018-07-22T22:23:11.219Z,12.70
2018-07-22T22:25:40.533Z,12.33
2018-07-22T22:28:10.277Z,14.00
2018-07-22T22:30:39.867Z,13.17
2018-07-22T22:33:09.564Z,13.83
2018-07-22T22:35:39.482Z,14.10
2018-07-22T22:38:09.163Z,14.57
2018-07-22T22:40:38.926Z,13.73
2018-07-22T22:43:08.546Z,14.30
2018-07-22T22:45:38.114Z,14.50
2018-07-22T22:48:07.786Z,14.53
2018-07-22T22:50:37.420Z,13.13
2018-07-22T22:53:06.970Z,14.07
2018-07-22T22:55:36.667Z,13.80
2018-07-22T22:58:22.920Z,14.10
2018-07-22T23:00:52.518Z,14.17
2018-07-22T23:03:22.278Z,13.50
2018-07-22T23:05:51.861Z,13.53
2018-07-22T23:08:21.411Z,14.73
2018-07-22T23:10:51.049Z,14.90
2018-07-22T23:13:20.727Z,12.63
2018-07-22T23:15:50.333Z,13.00
2018-07-22T23:18:19.984Z,14.43
2018-07-22T23:20:49.537Z,14.87
2018-07-22T23:23:19.507Z,14.13
2018-07-22T23:25:49.209Z,14.87
2018-07-22T23:28:18.765Z,16.30
2018-07-22T23:30:48.449Z,16.73
2018-07-22T23:33:17.980Z,17.60
2018-07-22T23:35:47.553Z,18.10
2018-07-22T23:38:17.211Z,18.30
2018-07-22T23:40:48.161Z,17.83
2018-07-22T23:43:17.805Z,16.90
2018-07-22T23:45:47.517Z,17.67
2018-07-22T23:48:17.150Z,17.20
2018-07-22T23:50:46.737Z,16.50
2018-07-22T23:53:16.342Z,17.40
2018-07-22T23:55:46.047Z,17.43
2018-07-22T23:58:15.702Z,12.50
